sensor_id;sensor_type;location;lat;lon;timestamp;pressure;altitude;pressure_sealevel;temperature;humidity
40998;BME280;26740;45.944;12.480;2023-02-28T00:01:19;101830.19;;;2.80;96.71
40998;BME280;26740;45.944;12.480;2023-02-28T00:03:45;101838.44;;;2.80;97.19
40998;BME280;26740;45.944;12.480;2023-02-28T00:06:10;101837.84;;;2.93;93.01
40998;BME280;26740;45.944;12.480;2023-02-28T00:08:37;101837.00;;;2.92;94.22
40998;BME280;26740;45.944;12.480;2023-02-28T00:11:08;101839.06;;;2.98;93.45
40998;BME280;26740;45.944;12.480;2023-02-28T00:13:36;101839.22;;;2.97;92.54
40998;BME280;26740;45.944;12.480;2023-02-28T00:16:05;101836.00;;;2.85;95.59
40998;BME280;26740;45.944;12.480;2023-02-28T00:18:31;101835.00;;;2.78;97.18
40998;BME280;26740;45.944;12.480;2023-02-28T00:20:58;101843.75;;;2.81;95.08
40998;BME280;26740;45.944;12.480;2023-02-28T00:23:24;101836.03;;;2.77;95.99
40998;BME280;26740;45.944;12.480;2023-02-28T00:25:50;101849.41;;;2.80;97.84
40998;BME280;26740;45.944;12.480;2023-02-28T00:28:16;101851.28;;;2.79;95.44
40998;BME280;26740;45.944;12.480;2023-02-28T00:30:41;101859.31;;;2.89;93.07
40998;BME280;26740;45.944;12.480;2023-02-28T00:33:07;101858.47;;;2.89;94.99
40998;BME280;26740;45.944;12.480;2023-02-28T00:35:32;101860.69;;;2.85;97.25
40998;BME280;26740;45.944;12.480;2023-02-28T00:37:58;101854.31;;;2.93;94.92
40998;BME280;26740;45.944;12.480;2023-02-28T00:40:23;101859.31;;;2.89;95.65
40998;BME280;26740;45.944;12.480;2023-02-28T00:42:48;101850.41;;;2.87;95.00
40998;BME280;26740;45.944;12.480;2023-02-28T00:45:14;101860.81;;;3.00;94.89
40998;BME280;26740;45.944;12.480;2023-02-28T00:47:39;101853.94;;;3.04;94.86
40998;BME280;26740;45.944;12.480;2023-02-28T00:50:05;101855.53;;;2.98;95.86
40998;BME280;26740;45.944;12.480;2023-02-28T00:52:31;101855.81;;;3.03;98.16
40998;BME280;26740;45.944;12.480;2023-02-28T00:54:57;101860.03;;;3.22;93.24
40998;BME280;26740;45.944;12.480;2023-02-28T00:57:22;101859.38;;;3.12;96.62
40998;BME280;26740;45.944;12.480;2023-02-28T00:59:48;101860.03;;;3.22;96.05
40998;BME280;26740;45.944;12.480;2023-02-28T01:02:13;101862.94;;;3.21;94.47
40998;BME280;26740;45.944;12.480;2023-02-28T01:04:39;101862.00;;;3.37;93.52
40998;BME280;26740;45.944;12.480;2023-02-28T01:07:04;101859.03;;;3.47;90.68
40998;BME280;26740;45.944;12.480;2023-02-28T01:09:30;101859.75;;;3.40;93.50
40998;BME280;26740;45.944;12.480;2023-02-28T01:11:55;101867.00;;;3.33;91.55
40998;BME280;26740;45.944;12.480;2023-02-28T01:14:21;101856.03;;;3.33;94.34
40998;BME280;26740;45.944;12.480;2023-02-28T01:16:47;101864.34;;;3.17;96.35
40998;BME280;26740;45.944;12.480;2023-02-28T01:19:13;101859.66;;;3.26;93.06
40998;BME280;26740;45.944;12.480;2023-02-28T01:21:38;101866.69;;;3.28;94.08
40998;BME280;26740;45.944;12.480;2023-02-28T01:24:04;101864.06;;;3.35;93.73
40998;BME280;26740;45.944;12.480;2023-02-28T01:26:31;101869.63;;;3.27;93.53
40998;BME280;26740;45.944;12.480;2023-02-28T01:28:56;101865.25;;;3.40;93.52
40998;BME280;26740;45.944;12.480;2023-02-28T01:31:23;101853.19;;;3.50;93.22
40998;BME280;26740;45.944;12.480;2023-02-28T01:33:49;101867.31;;;3.38;92.62
40998;BME280;26740;45.944;12.480;2023-02-28T01:36:17;101865.81;;;3.36;93.38
40998;BME280;26740;45.944;12.480;2023-02-28T01:38:44;101869.34;;;3.45;92.63
40998;BME280;26740;45.944;12.480;2023-02-28T01:41:16;101875.69;;;3.45;89.37
40998;BME280;26740;45.944;12.480;2023-02-28T01:46:07;101865.47;;;3.62;88.94
40998;BME280;26740;45.944;12.480;2023-02-28T01:48:36;101870.00;;;3.55;90.27
40998;BME280;26740;45.944;12.480;2023-02-28T01:51:08;101873.09;;;3.52;91.20
40998;BME280;26740;45.944;12.480;2023-02-28T01:53:41;101866.38;;;3.54;91.41
40998;BME280;26740;45.944;12.480;2023-02-28T01:56:10;101868.94;;;3.56;91.77
40998;BME280;26740;45.944;12.480;2023-02-28T01:58:37;101878.47;;;3.37;93.50
40998;BME280;26740;45.944;12.480;2023-02-28T02:01:03;101885.88;;;3.36;91.60
40998;BME280;26740;45.944;12.480;2023-02-28T02:03:30;101875.63;;;3.30;94.20
40998;BME280;26740;45.944;12.480;2023-02-28T02:05:56;101877.97;;;3.33;92.49
40998;BME280;26740;45.944;12.480;2023-02-28T02:08:26;101880.78;;;3.56;88.69
40998;BME280;26740;45.944;12.480;2023-02-28T02:10:59;101880.72;;;3.65;90.80
40998;BME280;26740;45.944;12.480;2023-02-28T02:33:14;101875.38;;;3.71;86.14
40998;BME280;26740;45.944;12.480;2023-02-28T02:36:22;101879.13;;;3.70;86.65
40998;BME280;26740;45.944;12.480;2023-02-28T02:41:41;101870.84;;;3.78;88.35
40998;BME280;26740;45.944;12.480;2023-02-28T02:44:23;101874.94;;;3.83;85.63
40998;BME280;26740;45.944;12.480;2023-02-28T02:46:54;101869.44;;;3.83;87.20
40998;BME280;26740;45.944;12.480;2023-02-28T02:49:31;101866.09;;;3.95;82.72
40998;BME280;26740;45.944;12.480;2023-02-28T02:52:03;101867.81;;;3.96;82.30
40998;BME280;26740;45.944;12.480;2023-02-28T02:54:36;101870.72;;;3.95;82.62
40998;BME280;26740;45.944;12.480;2023-02-28T02:57:06;101859.44;;;3.90;83.69
40998;BME280;26740;45.944;12.480;2023-02-28T02:59:35;101861.75;;;4.01;79.98
40998;BME280;26740;45.944;12.480;2023-02-28T03:02:04;101857.97;;;4.02;82.12
40998;BME280;26740;45.944;12.480;2023-02-28T03:04:36;101861.09;;;3.99;81.33
40998;BME280;26740;45.944;12.480;2023-02-28T03:07:03;101855.38;;;4.01;81.86
40998;BME280;26740;45.944;12.480;2023-02-28T03:09:33;101862.47;;;3.95;83.26
40998;BME280;26740;45.944;12.480;2023-02-28T03:11:59;101865.72;;;3.98;84.63
40998;BME280;26740;45.944;12.480;2023-02-28T03:25:37;101855.84;;;3.89;83.26
40998;BME280;26740;45.944;12.480;2023-02-28T03:28:16;101846.19;;;3.93;83.87
40998;BME280;26740;45.944;12.480;2023-02-28T03:33:38;101858.41;;;3.91;84.36
40998;BME280;26740;45.944;12.480;2023-02-28T03:36:13;101863.47;;;3.79;87.41
40998;BME280;26740;45.944;12.480;2023-02-28T03:39:00;101859.44;;;3.90;86.13
40998;BME280;26740;45.944;12.480;2023-02-28T03:41:35;101861.81;;;3.93;85.41
40998;BME280;26740;45.944;12.480;2023-02-28T03:44:12;101856.31;;;3.93;85.08
40998;BME280;26740;45.944;12.480;2023-02-28T03:46:47;101853.63;;;3.85;85.68
40998;BME280;26740;45.944;12.480;2023-02-28T03:49:21;101854.56;;;3.77;85.97
40998;BME280;26740;45.944;12.480;2023-02-28T03:51:49;101844.91;;;3.81;88.31
40998;BME280;26740;45.944;12.480;2023-02-28T03:54:22;101855.00;;;3.89;85.49
40998;BME280;26740;45.944;12.480;2023-02-28T03:56:59;101852.78;;;3.84;85.84
40998;BME280;26740;45.944;12.480;2023-02-28T03:59:30;101865.00;;;3.82;86.81
40998;BME280;26740;45.944;12.480;2023-02-28T04:01:59;101860.22;;;3.75;90.14
40998;BME280;26740;45.944;12.480;2023-02-28T04:04:25;101860.00;;;3.85;87.51
40998;BME280;26740;45.944;12.480;2023-02-28T04:06:52;101852.25;;;3.89;87.53
40998;BME280;26740;45.944;12.480;2023-02-28T04:09:18;101858.47;;;3.83;90.55
40998;BME280;26740;45.944;12.480;2023-02-28T04:11:51;101859.13;;;3.85;90.05
40998;BME280;26740;45.944;12.480;2023-02-28T04:14:17;101860.84;;;3.86;89.73
40998;BME280;26740;45.944;12.480;2023-02-28T04:16:43;101861.75;;;4.01;88.73
40998;BME280;26740;45.944;12.480;2023-02-28T04:19:10;101857.13;;;4.02;87.58
40998;BME280;26740;45.944;12.480;2023-02-28T04:21:41;101858.88;;;3.94;90.75
40998;BME280;26740;45.944;12.480;2023-02-28T04:24:12;101858.34;;;3.99;89.90
40998;BME280;26740;45.944;12.480;2023-02-28T04:26:46;101851.56;;;3.87;91.24
40998;BME280;26740;45.944;12.480;2023-02-28T04:29:14;101851.94;;;3.84;90.06
40998;BME280;26740;45.944;12.480;2023-02-28T04:31:40;101847.78;;;3.88;89.82
40998;BME280;26740;45.944;12.480;2023-02-28T04:34:06;101853.63;;;3.85;90.46
40998;BME280;26740;45.944;12.480;2023-02-28T04:36:32;101852.25;;;3.66;92.32
40998;BME280;26740;45.944;12.480;2023-02-28T04:38:57;101858.44;;;3.59;92.62
40998;BME280;26740;45.944;12.480;2023-02-28T04:41:23;101855.66;;;3.68;93.06
40998;BME280;26740;45.944;12.480;2023-02-28T04:43:51;101847.78;;;3.65;90.71
40998;BME280;26740;45.944;12.480;2023-02-28T04:46:17;101847.22;;;3.69;90.69
40998;BME280;26740;45.944;12.480;2023-02-28T04:48:43;101850.59;;;3.79;88.07
40998;BME280;26740;45.944;12.480;2023-02-28T04:51:11;101849.25;;;3.75;88.82
40998;BME280;26740;45.944;12.480;2023-02-28T04:53:39;101849.00;;;3.62;91.02
40998;BME280;26740;45.944;12.480;2023-02-28T04:56:06;101859.22;;;3.45;93.62
40998;BME280;26740;45.944;12.480;2023-02-28T04:58:33;101841.66;;;3.54;92.34
40998;BME280;26740;45.944;12.480;2023-02-28T05:01:04;101849.50;;;3.34;94.03
40998;BME280;26740;45.944;12.480;2023-02-28T05:03:38;101853.84;;;3.29;95.48
40998;BME280;26740;45.944;12.480;2023-02-28T05:06:06;101856.59;;;3.20;96.31
40998;BME280;26740;45.944;12.480;2023-02-28T05:08:33;101858.00;;;3.16;94.96
40998;BME280;26740;45.944;12.480;2023-02-28T05:10:59;101856.47;;;3.14;93.45
40998;BME280;26740;45.944;12.480;2023-02-28T05:13:26;101853.41;;;3.09;93.58
40998;BME280;26740;45.944;12.480;2023-02-28T05:15:52;101861.09;;;3.13;93.40
40998;BME280;26740;45.944;12.480;2023-02-28T05:18:18;101863.38;;;3.01;94.10
40998;BME280;26740;45.944;12.480;2023-02-28T05:20:43;101863.19;;;3.03;95.20
40998;BME280;26740;45.944;12.480;2023-02-28T05:23:12;101857.75;;;2.95;96.15
40998;BME280;26740;45.944;12.480;2023-02-28T05:25:38;101849.31;;;3.04;94.88
40998;BME280;26740;45.944;12.480;2023-02-28T05:28:04;101850.84;;;3.07;93.71
40998;BME280;26740;45.944;12.480;2023-02-28T05:30:29;101841.72;;;3.15;92.11
40998;BME280;26740;45.944;12.480;2023-02-28T05:32:57;101841.88;;;3.21;92.37
40998;BME280;26740;45.944;12.480;2023-02-28T05:35:24;101839.16;;;3.13;92.93
40998;BME280;26740;45.944;12.480;2023-02-28T05:37:49;101846.56;;;3.04;92.93
40998;BME280;26740;45.944;12.480;2023-02-28T05:40:16;101840.88;;;3.14;94.00
40998;BME280;26740;45.944;12.480;2023-02-28T05:42:41;101849.63;;;3.10;93.35
40998;BME280;26740;45.944;12.480;2023-02-28T05:45:08;101847.41;;;3.05;93.37
40998;BME280;26740;45.944;12.480;2023-02-28T05:47:34;101851.91;;;2.98;93.77
40998;BME280;26740;45.944;12.480;2023-02-28T05:50:00;101847.97;;;2.92;95.14
40998;BME280;26740;45.944;12.480;2023-02-28T05:52:26;101842.50;;;2.92;94.11
40998;BME280;26740;45.944;12.480;2023-02-28T05:54:52;101853.16;;;2.87;93.89
40998;BME280;26740;45.944;12.480;2023-02-28T05:57:17;101846.47;;;2.90;96.69
40998;BME280;26740;45.944;12.480;2023-02-28T05:59:43;101855.53;;;2.98;93.79
40998;BME280;26740;45.944;12.480;2023-02-28T06:02:13;101845.72;;;3.04;92.41
40998;BME280;26740;45.944;12.480;2023-02-28T06:04:39;101859.53;;;3.19;94.06
40998;BME280;26740;45.944;12.480;2023-02-28T06:07:06;101858.59;;;3.35;91.64
40998;BME280;26740;45.944;12.480;2023-02-28T06:09:31;101863.31;;;3.49;90.87
40998;BME280;26740;45.944;12.480;2023-02-28T06:12:01;101858.16;;;3.77;88.58
40998;BME280;26740;45.944;12.480;2023-02-28T06:14:29;101855.28;;;4.17;86.52
40998;BME280;26740;45.944;12.480;2023-02-28T06:16:56;101868.22;;;4.46;81.87
40998;BME280;26740;45.944;12.480;2023-02-28T06:19:22;101863.81;;;4.90;80.11
40998;BME280;26740;45.944;12.480;2023-02-28T06:21:51;101874.97;;;5.18;77.95
40998;BME280;26740;45.944;12.480;2023-02-28T06:24:19;101875.75;;;5.63;75.49
40998;BME280;26740;45.944;12.480;2023-02-28T06:26:45;101883.34;;;5.98;73.73
40998;BME280;26740;45.944;12.480;2023-02-28T06:29:10;101879.63;;;6.27;72.83
40998;BME280;26740;45.944;12.480;2023-02-28T06:31:36;101885.91;;;6.71;69.50
40998;BME280;26740;45.944;12.480;2023-02-28T06:34:03;101889.34;;;7.08;69.34
40998;BME280;26740;45.944;12.480;2023-02-28T06:36:29;101887.28;;;7.23;66.44
40998;BME280;26740;45.944;12.480;2023-02-28T06:38:55;101888.75;;;6.56;65.29
40998;BME280;26740;45.944;12.480;2023-02-28T06:41:26;101898.22;;;7.03;68.10
40998;BME280;26740;45.944;12.480;2023-02-28T06:43:52;101898.06;;;7.11;66.57
40998;BME280;26740;45.944;12.480;2023-02-28T06:46:18;101901.59;;;7.40;63.25
40998;BME280;26740;45.944;12.480;2023-02-28T06:48:44;101906.56;;;7.58;62.64
40998;BME280;26740;45.944;12.480;2023-02-28T06:51:13;101906.00;;;7.28;60.57
40998;BME280;26740;45.944;12.480;2023-02-28T06:53:40;101907.94;;;7.34;61.72
40998;BME280;26740;45.944;12.480;2023-02-28T06:56:13;101904.53;;;7.32;62.66
40998;BME280;26740;45.944;12.480;2023-02-28T06:58:40;101911.91;;;7.73;64.51
40998;BME280;26740;45.944;12.480;2023-02-28T07:01:06;101903.75;;;6.47;65.51
40998;BME280;26740;45.944;12.480;2023-02-28T07:03:32;101907.94;;;6.14;65.73
40998;BME280;26740;45.944;12.480;2023-02-28T07:05:58;101907.69;;;6.59;67.08
40998;BME280;26740;45.944;12.480;2023-02-28T07:08:25;101910.34;;;6.24;67.42
40998;BME280;26740;45.944;12.480;2023-02-28T07:10:55;101905.22;;;6.42;65.34
40998;BME280;26740;45.944;12.480;2023-02-28T07:13:21;101911.88;;;6.26;65.79
40998;BME280;26740;45.944;12.480;2023-02-28T07:16:01;101914.81;;;6.75;65.15
40998;BME280;26740;45.944;12.480;2023-02-28T07:18:27;101913.25;;;6.94;63.24
40998;BME280;26740;45.944;12.480;2023-02-28T07:20:53;101916.81;;;7.64;61.96
40998;BME280;26740;45.944;12.480;2023-02-28T07:23:19;101910.50;;;7.84;63.13
40998;BME280;26740;45.944;12.480;2023-02-28T07:25:45;101913.63;;;7.74;60.07
40998;BME280;26740;45.944;12.480;2023-02-28T07:28:14;101917.97;;;7.96;61.04
40998;BME280;26740;45.944;12.480;2023-02-28T07:30:40;101908.41;;;8.26;61.27
40998;BME280;26740;45.944;12.480;2023-02-28T07:33:06;101918.88;;;8.30;62.70
40998;BME280;26740;45.944;12.480;2023-02-28T07:35:32;101922.50;;;8.24;59.12
40998;BME280;26740;45.944;12.480;2023-02-28T07:37:58;101928.50;;;8.88;57.81
40998;BME280;26740;45.944;12.480;2023-02-28T07:40:24;101924.09;;;9.39;57.10
40998;BME280;26740;45.944;12.480;2023-02-28T07:42:50;101925.13;;;9.96;53.74
40998;BME280;26740;45.944;12.480;2023-02-28T07:45:16;101929.91;;;11.03;52.14
40998;BME280;26740;45.944;12.480;2023-02-28T07:47:43;101929.50;;;11.73;51.12
40998;BME280;26740;45.944;12.480;2023-02-28T07:50:11;101928.00;;;12.38;47.42
40998;BME280;26740;45.944;12.480;2023-02-28T07:52:38;101926.38;;;13.43;44.62
40998;BME280;26740;45.944;12.480;2023-02-28T07:55:04;101929.41;;;13.42;44.38
40998;BME280;26740;45.944;12.480;2023-02-28T07:57:30;101936.06;;;13.93;43.44
40998;BME280;26740;45.944;12.480;2023-02-28T07:59:56;101942.72;;;14.50;42.01
40998;BME280;26740;45.944;12.480;2023-02-28T08:02:21;101931.66;;;13.57;42.90
40998;BME280;26740;45.944;12.480;2023-02-28T08:04:47;101933.59;;;13.68;42.83
40998;BME280;26740;45.944;12.480;2023-02-28T08:07:14;101941.25;;;14.30;41.68
40998;BME280;26740;45.944;12.480;2023-02-28T08:09:40;101940.03;;;14.89;38.75
40998;BME280;26740;45.944;12.480;2023-02-28T08:12:07;101938.09;;;14.72;40.89
40998;BME280;26740;45.944;12.480;2023-02-28T08:14:33;101933.88;;;13.19;40.79
40998;BME280;26740;45.944;12.480;2023-02-28T08:16:59;101945.16;;;13.89;40.40
40998;BME280;26740;45.944;12.480;2023-02-28T08:19:24;101932.75;;;12.61;42.05
40998;BME280;26740;45.944;12.480;2023-02-28T08:21:49;101934.41;;;12.39;40.31
40998;BME280;26740;45.944;12.480;2023-02-28T08:24:15;101935.47;;;10.78;44.23
40998;BME280;26740;45.944;12.480;2023-02-28T08:26:41;101940.97;;;10.34;46.40
40998;BME280;26740;45.944;12.480;2023-02-28T08:29:06;101943.00;;;10.46;45.94
40998;BME280;26740;45.944;12.480;2023-02-28T08:31:32;101934.31;;;10.29;46.95
40998;BME280;26740;45.944;12.480;2023-02-28T08:33:57;101935.56;;;9.62;48.25
40998;BME280;26740;45.944;12.480;2023-02-28T08:36:25;101945.31;;;9.72;47.06
40998;BME280;26740;45.944;12.480;2023-02-28T08:38:53;101948.06;;;9.78;47.91
40998;BME280;26740;45.944;12.480;2023-02-28T08:41:19;101939.16;;;9.63;47.67
40998;BME280;26740;45.944;12.480;2023-02-28T08:43:44;101944.16;;;9.41;50.19
40998;BME280;26740;45.944;12.480;2023-02-28T08:46:13;101941.91;;;9.76;50.24
40998;BME280;26740;45.944;12.480;2023-02-28T08:48:39;101934.72;;;10.39;49.22
40998;BME280;26740;45.944;12.480;2023-02-28T08:51:08;101937.75;;;10.31;47.75
40998;BME280;26740;45.944;12.480;2023-02-28T08:53:38;101932.41;;;9.97;47.55
40998;BME280;26740;45.944;12.480;2023-02-28T08:56:10;101933.28;;;9.39;50.19
40998;BME280;26740;45.944;12.480;2023-02-28T08:58:36;101928.88;;;9.77;51.12
40998;BME280;26740;45.944;12.480;2023-02-28T09:01:08;101919.09;;;8.96;52.30
40998;BME280;26740;45.944;12.480;2023-02-28T09:03:34;101926.78;;;9.00;53.84
40998;BME280;26740;45.944;12.480;2023-02-28T09:06:00;101927.97;;;9.31;50.89
40998;BME280;26740;45.944;12.480;2023-02-28T09:08:28;101937.38;;;9.23;51.51
40998;BME280;26740;45.944;12.480;2023-02-28T09:10:55;101930.03;;;9.56;50.59
40998;BME280;26740;45.944;12.480;2023-02-28T09:13:23;101928.88;;;8.98;53.07
40998;BME280;26740;45.944;12.480;2023-02-28T09:15:48;101928.03;;;8.38;53.28
40998;BME280;26740;45.944;12.480;2023-02-28T09:18:14;101932.53;;;9.05;52.95
40998;BME280;26740;45.944;12.480;2023-02-28T09:20:41;101928.34;;;9.48;48.78
40998;BME280;26740;45.944;12.480;2023-02-28T09:23:08;101933.25;;;9.98;50.03
40998;BME280;26740;45.944;12.480;2023-02-28T09:25:34;101935.53;;;9.69;47.95
40998;BME280;26740;45.944;12.480;2023-02-28T09:28:00;101933.97;;;9.86;49.21
40998;BME280;26740;45.944;12.480;2023-02-28T09:30:26;101932.63;;;9.96;46.95
40998;BME280;26740;45.944;12.480;2023-02-28T09:32:52;101925.94;;;10.03;48.24
40998;BME280;26740;45.944;12.480;2023-02-28T09:35:23;101917.91;;;10.84;48.40
40998;BME280;26740;45.944;12.480;2023-02-28T09:37:50;101923.59;;;10.39;48.74
40998;BME280;26740;45.944;12.480;2023-02-28T09:40:18;101916.56;;;10.43;46.07
40998;BME280;26740;45.944;12.480;2023-02-28T09:42:49;101924.03;;;10.36;47.29
40998;BME280;26740;45.944;12.480;2023-02-28T09:47:48;101918.97;;;11.08;47.74
40998;BME280;26740;45.944;12.480;2023-02-28T09:50:38;101923.22;;;10.60;47.91
40998;BME280;26740;45.944;12.480;2023-02-28T09:53:19;101914.19;;;10.90;46.68
40998;BME280;26740;45.944;12.480;2023-02-28T09:55:49;101923.81;;;11.50;46.05
40998;BME280;26740;45.944;12.480;2023-02-28T10:01:39;101895.13;;;10.94;47.99
40998;BME280;26740;45.944;12.480;2023-02-28T10:03:59;101911.94;;;10.80;45.81
40998;BME280;26740;45.944;12.480;2023-02-28T10:06:29;101906.78;;;10.84;45.79
40998;BME280;26740;45.944;12.480;2023-02-28T10:09:02;101902.47;;;10.88;45.99
40998;BME280;26740;45.944;12.480;2023-02-28T10:11:30;101907.13;;;10.69;48.08
40998;BME280;26740;45.944;12.480;2023-02-28T10:14:16;101904.56;;;10.93;45.80
40998;BME280;26740;45.944;12.480;2023-02-28T10:16:56;101917.19;;;11.32;45.35
40998;BME280;26740;45.944;12.480;2023-02-28T10:21:58;101906.59;;;11.60;45.16
40998;BME280;26740;45.944;12.480;2023-02-28T10:24:48;101904.44;;;11.62;46.15
40998;BME280;26740;45.944;12.480;2023-02-28T10:27:15;101908.13;;;11.74;47.96
40998;BME280;26740;45.944;12.480;2023-02-28T10:29:46;101899.72;;;12.11;49.08
40998;BME280;26740;45.944;12.480;2023-02-28T10:32:16;101911.50;;;11.76;47.37
40998;BME280;26740;45.944;12.480;2023-02-28T10:34:42;101904.63;;;11.79;48.48
40998;BME280;26740;45.944;12.480;2023-02-28T10:37:09;101900.28;;;11.83;48.78
40998;BME280;26740;45.944;12.480;2023-02-28T10:39:44;101909.13;;;11.61;45.44
40998;BME280;26740;45.944;12.480;2023-02-28T10:42:25;101906.81;;;11.58;47.25
40998;BME280;26740;45.944;12.480;2023-02-28T10:45:30;101894.22;;;11.55;47.43
40998;BME280;26740;45.944;12.480;2023-02-28T10:48:03;101893.63;;;11.35;47.42
40998;BME280;26740;45.944;12.480;2023-02-28T10:55:40;101894.16;;;11.25;46.49
40998;BME280;26740;45.944;12.480;2023-02-28T10:58:23;101887.59;;;11.87;45.25
40998;BME280;26740;45.944;12.480;2023-02-28T11:00:49;101887.50;;;11.63;45.58
40998;BME280;26740;45.944;12.480;2023-02-28T11:03:29;101895.53;;;11.34;45.48
40998;BME280;26740;45.944;12.480;2023-02-28T11:05:56;101882.22;;;11.92;50.57
40998;BME280;26740;45.944;12.480;2023-02-28T11:08:22;101875.44;;;12.00;46.87
40998;BME280;26740;45.944;12.480;2023-02-28T11:10:57;101875.31;;;12.37;46.92
40998;BME280;26740;45.944;12.480;2023-02-28T11:13:32;101867.72;;;11.34;46.29
40998;BME280;26740;45.944;12.480;2023-02-28T11:16:00;101881.19;;;12.17;48.67
40998;BME280;26740;45.944;12.480;2023-02-28T11:20:59;101863.84;;;11.72;49.73
40998;BME280;26740;45.944;12.480;2023-02-28T11:23:28;101865.97;;;11.22;47.61
40998;BME280;26740;45.944;12.480;2023-02-28T11:25:58;101856.06;;;11.26;49.83
40998;BME280;26740;45.944;12.480;2023-02-28T11:28:46;101862.13;;;11.71;50.67
40998;BME280;26740;45.944;12.480;2023-02-28T11:33:55;101853.06;;;11.27;49.61
40998;BME280;26740;45.944;12.480;2023-02-28T11:36:27;101846.63;;;11.45;51.79
40998;BME280;26740;45.944;12.480;2023-02-28T11:38:55;101851.84;;;11.23;48.83
40998;BME280;26740;45.944;12.480;2023-02-28T11:42:44;101849.97;;;11.35;50.38
40998;BME280;26740;45.944;12.480;2023-02-28T11:50:14;101828.69;;;11.11;48.26
40998;BME280;26740;45.944;12.480;2023-02-28T11:52:52;101844.81;;;11.39;49.68
40998;BME280;26740;45.944;12.480;2023-02-28T11:56:08;101839.03;;;10.41;49.28
40998;BME280;26740;45.944;12.480;2023-02-28T11:58:20;101827.13;;;10.34;50.31
40998;BME280;26740;45.944;12.480;2023-02-28T12:06:01;101811.78;;;10.75;52.59
40998;BME280;26740;45.944;12.480;2023-02-28T12:22:59;101797.72;;;10.20;54.45
40998;BME280;26740;45.944;12.480;2023-02-28T12:26:06;101789.28;;;10.40;53.75
40998;BME280;26740;45.944;12.480;2023-02-28T12:28:43;101780.56;;;10.55;52.79
40998;BME280;26740;45.944;12.480;2023-02-28T12:31:20;101783.19;;;10.50;53.93
40998;BME280;26740;45.944;12.480;2023-02-28T12:34:06;101782.00;;;10.39;54.16
40998;BME280;26740;45.944;12.480;2023-02-28T12:36:36;101773.03;;;10.80;52.40
40998;BME280;26740;45.944;12.480;2023-02-28T12:39:26;101778.09;;;10.47;53.53
40998;BME280;26740;45.944;12.480;2023-02-28T12:41:58;101771.78;;;10.76;52.81
40998;BME280;26740;45.944;12.480;2023-02-28T12:44:32;101762.28;;;10.66;51.72
40998;BME280;26740;45.944;12.480;2023-02-28T12:47:04;101767.69;;;10.97;48.96
40998;BME280;26740;45.944;12.480;2023-02-28T12:52:05;101760.28;;;10.73;50.09
40998;BME280;26740;45.944;12.480;2023-02-28T12:57:35;101752.88;;;11.04;57.27
40998;BME280;26740;45.944;12.480;2023-02-28T13:00:17;101752.78;;;10.55;51.93
40998;BME280;26740;45.944;12.480;2023-02-28T13:11:47;101746.78;;;10.58;50.11
40998;BME280;26740;45.944;12.480;2023-02-28T13:14:29;101749.63;;;10.88;49.02
40998;BME280;26740;45.944;12.480;2023-02-28T13:19:30;101756.50;;;10.49;53.04
40998;BME280;26740;45.944;12.480;2023-02-28T13:21:57;101749.31;;;10.16;51.64
40998;BME280;26740;45.944;12.480;2023-02-28T13:24:36;101735.63;;;9.96;53.76
40998;BME280;26740;45.944;12.480;2023-02-28T13:34:37;101733.44;;;10.23;54.19
40998;BME280;26740;45.944;12.480;2023-02-28T13:39:50;101734.81;;;10.14;53.26
40998;BME280;26740;45.944;12.480;2023-02-28T13:48:17;101722.94;;;10.32;54.01
40998;BME280;26740;45.944;12.480;2023-02-28T13:50:44;101721.72;;;10.21;54.18
40998;BME280;26740;45.944;12.480;2023-02-28T13:55:57;101710.38;;;10.48;52.28
40998;BME280;26740;45.944;12.480;2023-02-28T14:06:55;101712.78;;;10.62;51.22
40998;BME280;26740;45.944;12.480;2023-02-28T14:09:38;101708.59;;;10.35;51.24
40998;BME280;26740;45.944;12.480;2023-02-28T14:16:06;101705.53;;;10.43;53.02
40998;BME280;26740;45.944;12.480;2023-02-28T14:18:25;101702.09;;;10.41;52.85
40998;BME280;26740;45.944;12.480;2023-02-28T14:20:57;101710.75;;;10.51;51.44
40998;BME280;26740;45.944;12.480;2023-02-28T14:31:54;101700.38;;;10.21;49.31
40998;BME280;26740;45.944;12.480;2023-02-28T14:34:43;101698.09;;;10.37;50.79
40998;BME280;26740;45.944;12.480;2023-02-28T14:37:15;101683.31;;;10.18;49.19
40998;BME280;26740;45.944;12.480;2023-02-28T14:39:44;101690.03;;;10.10;51.03
40998;BME280;26740;45.944;12.480;2023-02-28T14:42:33;101704.53;;;10.12;51.59
40998;BME280;26740;45.944;12.480;2023-02-28T14:45:00;101707.72;;;9.91;51.66
40998;BME280;26740;45.944;12.480;2023-02-28T14:47:30;101695.69;;;9.97;50.80
40998;BME280;26740;45.944;12.480;2023-02-28T14:49:58;101692.91;;;9.97;49.11
40998;BME280;26740;45.944;12.480;2023-02-28T14:52:27;101694.41;;;9.99;52.45
40998;BME280;26740;45.944;12.480;2023-02-28T14:54:58;101687.75;;;10.00;52.38
40998;BME280;26740;45.944;12.480;2023-02-28T14:57:32;101694.66;;;9.73;51.11
40998;BME280;26740;45.944;12.480;2023-02-28T15:00:49;101696.44;;;9.85;53.17
40998;BME280;26740;45.944;12.480;2023-02-28T15:03:23;101698.94;;;9.94;53.66
40998;BME280;26740;45.944;12.480;2023-02-28T15:06:00;101689.88;;;9.80;49.83
40998;BME280;26740;45.944;12.480;2023-02-28T15:08:28;101705.09;;;9.96;50.93
40998;BME280;26740;45.944;12.480;2023-02-28T15:11:07;101688.94;;;9.67;51.23
40998;BME280;26740;45.944;12.480;2023-02-28T15:13:42;101697.16;;;9.49;50.54
40998;BME280;26740;45.944;12.480;2023-02-28T15:19:02;101681.47;;;9.36;51.16
40998;BME280;26740;45.944;12.480;2023-02-28T15:21:34;101678.84;;;9.48;51.83
40998;BME280;26740;45.944;12.480;2023-02-28T15:26:40;101683.38;;;9.42;53.83